Flood From: 18-02-2018 16:00 Until: 19-02-2018 16:00 warning for: Flood Level: Yellow info button

Although rather usual in this region, locally or potentially dangerous phenomena are expected. (such as local winds, summer thunderstorms, rising streams or high waves) Be aware and pay attention to the latest weather updates, especially if you carry out activities exposed to weather or close to a stream or shoreline. 


Meteo18 Weather Cam more information Meteo18 Weather Cam


Thunder radar more information blitzortung!


Rain radar more information rain snow radar


Visit our other weather sites:

Template documentation
and downloads

And another site



Weather Underground History page Text

Daily Summary for Nil La, TWC- Units:  Both    English   Metric
« Previous Day
Next Day »
Daily Weekly Monthly Yearly Custom
  High: Low: Average:
Temperature: TemperatureC °F /  -17.8 °C 0.2 °F /  -17.7 °C 2.2 °F /  -16.6 °C
Dew Point: DewpointC °F /  -17.8 °C -0.2 °F /  -17.9 °C 1.8 °F /  -16.8 °C
Humidity: Humidity % 94 % 97 %
Wind Speed: WindSpeedKMH mph /  0 km/h - 0.7 mph /  1.1 km/h
Wind Gust: WindSpeedGustKMH mph /  0 km/h - -
Wind:- - SSW
Pressure: PressurehPa in /  0 hPa 1022.6 in /  34625.2 hPa -
Precipitation: 0.3 in /  7.62 mm    
Historical Graphs
 
 
Tabular Data for Nil La, TWC-
Time Temperature Dew Point Pressure Wind Wind Speed Wind Gust Humidity Rainfall Rate (Hourly)
TemperatureC °F /  -17.8 °C DewpointC °F /  -17.8 °C PressurehPa in /  0 hPa Calm     Humidity % HourlyPrecipMM in /  0 mm
00:00 3.1 °F /  -16.1 °C 2.7 °F /  -16.3 °C 1025.6 in /  34726.8 hPa Calm   1.6 mph /  2.6 km/h 97 % 0.0 in /  0 mm
00:07 3.1 °F /  -16.1 °C 2.7 °F /  -16.3 °C 1025.6 in /  34726.8 hPa Calm   1.6 mph /  2.6 km/h 97 % 0.0 in /  0 mm
00:13 3.1 °F /  -16.1 °C 2.7 °F /  -16.3 °C 1025.6 in /  34726.8 hPa Calm     97 % 0.0 in /  0 mm
00:19 3.2 °F /  -16 °C 2.8 °F /  -16.2 °C 1025.6 in /  34726.8 hPa Calm     97 % 0.0 in /  0 mm
00:25 3.2 °F /  -16 °C 2.8 °F /  -16.2 °C 1025.6 in /  34726.8 hPa Calm     97 % 0.0 in /  0 mm
00:31 3.0 °F /  -16.1 °C 2.6 °F /  -16.3 °C 1025.6 in /  34726.8 hPa Calm     97 % 0.0 in /  0 mm
00:37 2.8 °F /  -16.2 °C 2.4 °F /  -16.4 °C 1025.6 in /  34726.8 hPa Calm   1.6 mph /  2.6 km/h 97 % 0.0 in /  0 mm
00:43 2.6 °F /  -16.3 °C 2.0 °F /  -16.7 °C 1025.6 in /  34726.8 hPa Calm   1.6 mph /  2.6 km/h 96 % 0.0 in /  0 mm
00:49 2.3 °F /  -16.5 °C 1.7 °F /  -16.8 °C 1025.6 in /  34726.8 hPa Calm   1.6 mph /  2.6 km/h 96 % 0.0 in /  0 mm
00:55 2.3 °F /  -16.5 °C 1.9 °F /  -16.7 °C 1025.6 in /  34726.8 hPa Calm   1.6 mph /  2.6 km/h 97 % 0.0 in /  0 mm
01:01 2.2 °F /  -16.6 °C 1.8 °F /  -16.8 °C 1025.6 in /  34726.8 hPa WNW 1.4 mph /  2.3 km/h 3.2 mph /  5.1 km/h 97 % 0.0 in /  0 mm
01:07 2.0 °F /  -16.7 °C 1.4 °F /  -17 °C 1025.6 in /  34726.8 hPa Calm   1.6 mph /  2.6 km/h 96 % 0.0 in /  0 mm
01:13 2.0 °F /  -16.7 °C 1.6 °F /  -16.9 °C 1025.6 in /  34726.8 hPa Calm   1.6 mph /  2.6 km/h 97 % 0.0 in /  0 mm
01:19 1.9 °F /  -16.7 °C 1.5 °F /  -16.9 °C 1025.6 in /  34726.8 hPa Calm   3.2 mph /  5.1 km/h 97 % 0.0 in /  0 mm
01:25 1.8 °F /  -16.8 °C 1.4 °F /  -17 °C 1025.6 in /  34726.8 hPa Calm   1.6 mph /  2.6 km/h 97 % 0.0 in /  0 mm
01:31 1.8 °F /  -16.8 °C 1.4 °F /  -17 °C 1025.6 in /  34726.8 hPa Calm     97 % 0.0 in /  0 mm
01:37 1.8 °F /  -16.8 °C 1.4 °F /  -17 °C 1025.6 in /  34726.8 hPa NNE 1.4 mph /  2.3 km/h 1.6 mph /  2.6 km/h 97 % 0.0 in /  0 mm
01:43 1.7 °F /  -16.8 °C 1.3 °F /  -17.1 °C 1025.6 in /  34726.8 hPa Calm     97 % 0.0 in /  0 mm
01:49 1.6 °F /  -16.9 °C 1.2 °F /  -17.1 °C 1025.6 in /  34726.8 hPa Calm     97 % 0.0 in /  0 mm
01:55 1.5 °F /  -16.9 °C 1.1 °F /  -17.2 °C 1025.6 in /  34726.8 hPa Calm     97 % 0.0 in /  0 mm
02:01 1.5 °F /  -16.9 °C 1.1 °F /  -17.2 °C 1025.6 in /  34726.8 hPa Calm     97 % 0.0 in /  0 mm
02:07 1.4 °F /  -17 °C 1.0 °F /  -17.2 °C 1025.6 in /  34726.8 hPa Calm     97 % 0.0 in /  0 mm
02:13 1.4 °F /  -17 °C 1.0 °F /  -17.2 °C 1025.6 in /  34726.8 hPa Calm     97 % 0.0 in /  0 mm
02:19 1.4 °F /  -17 °C 1.0 °F /  -17.2 °C 1025.6 in /  34726.8 hPa Calm     97 % 0.0 in /  0 mm
02:25 1.4 °F /  -17 °C 1.0 °F /  -17.2 °C 1025.6 in /  34726.8 hPa Calm     97 % 0.0 in /  0 mm
02:31 1.3 °F /  -17.1 °C 0.9 °F /  -17.3 °C 1025.6 in /  34726.8 hPa Calm     97 % 0.0 in /  0 mm
02:37 1.3 °F /  -17.1 °C 0.9 °F /  -17.3 °C 1026.0 in /  34740.4 hPa Calm     97 % 0.0 in /  0 mm
02:43 1.0 °F /  -17.2 °C 0.6 °F /  -17.4 °C 1026.0 in /  34740.4 hPa Calm     97 % 0.0 in /  0 mm
02:49 1.1 °F /  -17.2 °C 0.7 °F /  -17.4 °C 1025.6 in /  34726.8 hPa Calm     97 % 0.0 in /  0 mm
02:55 1.1 °F /  -17.2 °C 0.7 °F /  -17.4 °C 1025.6 in /  34726.8 hPa Calm     97 % 0.0 in /  0 mm
03:01 0.9 °F /  -17.3 °C 0.5 °F /  -17.5 °C 1025.6 in /  34726.8 hPa Calm     97 % 0.0 in /  0 mm
03:07 0.8 °F /  -17.3 °C 0.4 °F /  -17.6 °C 1025.6 in /  34726.8 hPa Calm     97 % 0.0 in /  0 mm
03:13 0.7 °F /  -17.4 °C 0.3 °F /  -17.6 °C 1025.6 in /  34726.8 hPa Calm     97 % 0.0 in /  0 mm
03:19 0.7 °F /  -17.4 °C 0.3 °F /  -17.6 °C 1025.6 in /  34726.8 hPa Calm     97 % 0.0 in /  0 mm
03:25 0.6 °F /  -17.4 °C 0.2 °F /  -17.7 °C 1025.6 in /  34726.8 hPa Calm     97 % 0.0 in /  0 mm
03:31 0.6 °F /  -17.4 °C 0.2 °F /  -17.7 °C 1025.6 in /  34726.8 hPa Calm     97 % 0.0 in /  0 mm
03:37 0.5 °F /  -17.5 °C 0.1 °F /  -17.7 °C 1025.6 in /  34726.8 hPa Calm     97 % 0.0 in /  0 mm
03:43 0.5 °F /  -17.5 °C 0.1 °F /  -17.7 °C 1025.6 in /  34726.8 hPa Calm     97 % 0.0 in /  0 mm
03:49 0.4 °F /  -17.6 °C 0.0 °F /  -17.8 °C 1025.6 in /  34726.8 hPa Calm     97 % 0.0 in /  0 mm
03:55 0.3 °F /  -17.6 °C -0.1 °F /  -17.8 °C 1025.6 in /  34726.8 hPa Calm     97 % 0.0 in /  0 mm
04:01 0.3 °F /  -17.6 °C -0.1 °F /  -17.8 °C 1025.3 in /  34716.7 hPa Calm     97 % 0.0 in /  0 mm
04:07 0.4 °F /  -17.6 °C 0.0 °F /  -17.8 °C 1025.6 in /  34726.8 hPa Calm     97 % 0.0 in /  0 mm
04:13 0.4 °F /  -17.6 °C 0.0 °F /  -17.8 °C 1025.3 in /  34716.7 hPa Calm     97 % 0.0 in /  0 mm
04:19 0.5 °F /  -17.5 °C 0.1 °F /  -17.7 °C 1025.6 in /  34726.8 hPa Calm     97 % 0.0 in /  0 mm
04:26 0.5 °F /  -17.5 °C 0.1 °F /  -17.7 °C 1025.6 in /  34726.8 hPa Calm     97 % 0.0 in /  0 mm
04:32 0.3 °F /  -17.6 °C -0.1 °F /  -17.8 °C 1025.6 in /  34726.8 hPa Calm     97 % 0.0 in /  0 mm
04:38 0.2 °F /  -17.7 °C -0.2 °F /  -17.9 °C 1025.3 in /  34716.7 hPa Calm     97 % 0.0 in /  0 mm
04:44 0.2 °F /  -17.7 °C -0.2 °F /  -17.9 °C 1025.3 in /  34716.7 hPa Calm     97 % 0.0 in /  0 mm
04:50 0.3 °F /  -17.6 °C -0.1 °F /  -17.8 °C 1025.6 in /  34726.8 hPa Calm     97 % 0.0 in /  0 mm
04:56 0.3 °F /  -17.6 °C -0.1 °F /  -17.8 °C 1025.3 in /  34716.7 hPa Calm     97 % 0.0 in /  0 mm
05:02 0.3 °F /  -17.6 °C -0.1 °F /  -17.8 °C 1025.6 in /  34726.8 hPa Calm     97 % 0.0 in /  0 mm
05:08 0.3 °F /  -17.6 °C -0.1 °F /  -17.8 °C 1025.3 in /  34716.7 hPa Calm     97 % 0.0 in /  0 mm
05:14 0.4 °F /  -17.6 °C 0.0 °F /  -17.8 °C 1025.3 in /  34716.7 hPa Calm     97 % 0.0 in /  0 mm
05:20 0.4 °F /  -17.6 °C 0.0 °F /  -17.8 °C 1025.3 in /  34716.7 hPa Calm     97 % 0.0 in /  0 mm
05:26 0.6 °F /  -17.4 °C 0.2 °F /  -17.7 °C 1025.3 in /  34716.7 hPa Calm     97 % 0.0 in /  0 mm
05:32 0.6 °F /  -17.4 °C 0.2 °F /  -17.7 °C 1025.3 in /  34716.7 hPa Calm     97 % 0.0 in /  0 mm
05:38 0.7 °F /  -17.4 °C 0.3 °F /  -17.6 °C 1025.3 in /  34716.7 hPa Calm     97 % 0.0 in /  0 mm
05:44 0.8 °F /  -17.3 °C 0.4 °F /  -17.6 °C 1024.9 in /  34703.1 hPa Calm     97 % 0.0 in /  0 mm
05:50 0.9 °F /  -17.3 °C 0.6 °F /  -17.4 °C 1024.9 in /  34703.1 hPa Calm   1.6 mph /  2.6 km/h 98 % 0.0 in /  0 mm
05:56 0.9 °F /  -17.3 °C 0.6 °F /  -17.4 °C 1024.9 in /  34703.1 hPa SW 3.2 mph /  5.1 km/h 3.2 mph /  5.1 km/h 98 % 0.0 in /  0 mm
06:02 1.0 °F /  -17.2 °C 0.7 °F /  -17.4 °C 1025.3 in /  34716.7 hPa Calm   3.2 mph /  5.1 km/h 98 % 0.0 in /  0 mm
06:09 0.9 °F /  -17.3 °C 0.6 °F /  -17.4 °C 1024.9 in /  34703.1 hPa Calm   1.6 mph /  2.6 km/h 98 % 0.0 in /  0 mm
06:15 0.9 °F /  -17.3 °C 0.6 °F /  -17.4 °C 1024.9 in /  34703.1 hPa Calm   1.6 mph /  2.6 km/h 98 % 0.0 in /  0 mm
06:21 0.9 °F /  -17.3 °C 0.5 °F /  -17.5 °C 1025.3 in /  34716.7 hPa Calm     97 % 0.0 in /  0 mm
06:27 1.0 °F /  -17.2 °C 0.6 °F /  -17.4 °C 1025.3 in /  34716.7 hPa Calm     97 % 0.0 in /  0 mm
06:33 1.1 °F /  -17.2 °C 0.7 °F /  -17.4 °C 1025.3 in /  34716.7 hPa Calm     97 % 0.0 in /  0 mm
06:39 1.1 °F /  -17.2 °C 0.7 °F /  -17.4 °C 1025.3 in /  34716.7 hPa Calm     97 % 0.0 in /  0 mm
06:45 1.1 °F /  -17.2 °C 0.8 °F /  -17.3 °C 1025.3 in /  34716.7 hPa Calm   1.6 mph /  2.6 km/h 98 % 0.0 in /  0 mm
06:51 1.1 °F /  -17.2 °C 0.8 °F /  -17.3 °C 1025.3 in /  34716.7 hPa Calm     98 % 0.3 in /  7.62 mm
06:57 1.2 °F /  -17.1 °C 0.9 °F /  -17.3 °C 1025.3 in /  34716.7 hPa Calm     98 % 0.3 in /  7.62 mm
07:03 1.2 °F /  -17.1 °C 0.9 °F /  -17.3 °C 1025.3 in /  34716.7 hPa Calm     98 % 0.3 in /  7.62 mm
07:09 1.2 °F /  -17.1 °C 0.9 °F /  -17.3 °C 1025.3 in /  34716.7 hPa Calm     98 % 0.3 in /  7.62 mm
07:15 1.2 °F /  -17.1 °C 0.9 °F /  -17.3 °C 1025.3 in /  34716.7 hPa Calm     98 % 0.3 in /  7.62 mm
07:21 1.2 °F /  -17.1 °C 0.8 °F /  -17.3 °C 1025.3 in /  34716.7 hPa Calm     97 % 0.3 in /  7.62 mm
07:27 1.2 °F /  -17.1 °C 0.9 °F /  -17.3 °C 1025.3 in /  34716.7 hPa Calm     98 % 0.3 in /  7.62 mm
07:33 1.2 °F /  -17.1 °C 0.9 °F /  -17.3 °C 1025.3 in /  34716.7 hPa Calm     98 % 0.3 in /  7.62 mm
07:39 1.2 °F /  -17.1 °C 0.8 °F /  -17.3 °C 1025.3 in /  34716.7 hPa Calm     97 % 0.3 in /  7.62 mm
07:45 1.2 °F /  -17.1 °C 0.8 °F /  -17.3 °C 1025.3 in /  34716.7 hPa Calm   1.6 mph /  2.6 km/h 97 % 0.3 in /  7.62 mm
07:51 1.2 °F /  -17.1 °C 0.8 °F /  -17.3 °C 1025.3 in /  34716.7 hPa Calm   1.6 mph /  2.6 km/h 97 % 0.0 in /  0 mm
07:57 1.2 °F /  -17.1 °C 0.8 °F /  -17.3 °C 1025.6 in /  34726.8 hPa SSW 1.4 mph /  2.3 km/h 1.6 mph /  2.6 km/h 97 % 0.0 in /  0 mm
08:03 1.2 °F /  -17.1 °C 0.8 °F /  -17.3 °C 1025.3 in /  34716.7 hPa South 1.4 mph /  2.3 km/h 3.2 mph /  5.1 km/h 97 % 0.0 in /  0 mm
08:09 1.1 °F /  -17.2 °C 0.7 °F /  -17.4 °C 1025.3 in /  34716.7 hPa Calm   1.6 mph /  2.6 km/h 97 % 0.0 in /  0 mm
08:15 1.2 °F /  -17.1 °C 0.8 °F /  -17.3 °C 1025.3 in /  34716.7 hPa Calm   1.6 mph /  2.6 km/h 97 % 0.0 in /  0 mm
08:21 1.1 °F /  -17.2 °C 0.7 °F /  -17.4 °C 1025.3 in /  34716.7 hPa Calm     97 % 0.0 in /  0 mm
08:27 1.2 °F /  -17.1 °C 0.8 °F /  -17.3 °C 1025.3 in /  34716.7 hPa Calm   1.6 mph /  2.6 km/h 97 % 0.0 in /  0 mm
08:33 1.2 °F /  -17.1 °C 0.9 °F /  -17.3 °C 1025.3 in /  34716.7 hPa Calm     98 % 0.0 in /  0 mm
08:40 1.3 °F /  -17.1 °C 1.0 °F /  -17.2 °C 1025.3 in /  34716.7 hPa Calm     98 % 0.0 in /  0 mm
08:46 1.3 °F /  -17.1 °C 1.0 °F /  -17.2 °C 1025.3 in /  34716.7 hPa Calm   1.6 mph /  2.6 km/h 98 % 0.0 in /  0 mm
08:52 1.3 °F /  -17.1 °C 1.0 °F /  -17.2 °C 1025.3 in /  34716.7 hPa Calm   1.6 mph /  2.6 km/h 98 % 0.0 in /  0 mm
08:58 1.3 °F /  -17.1 °C 1.0 °F /  -17.2 °C 1025.3 in /  34716.7 hPa Calm   1.6 mph /  2.6 km/h 98 % 0.0 in /  0 mm
09:04 1.3 °F /  -17.1 °C 1.0 °F /  -17.2 °C 1025.3 in /  34716.7 hPa Calm   3.2 mph /  5.1 km/h 98 % 0.0 in /  0 mm
09:10 1.4 °F /  -17 °C 1.1 °F /  -17.2 °C 1025.3 in /  34716.7 hPa SW 1.4 mph /  2.3 km/h 1.6 mph /  2.6 km/h 98 % 0.0 in /  0 mm
09:16 1.4 °F /  -17 °C 1.1 °F /  -17.2 °C 1024.9 in /  34703.1 hPa SW 1.4 mph /  2.3 km/h 3.2 mph /  5.1 km/h 98 % 0.0 in /  0 mm
09:22 1.4 °F /  -17 °C 1.1 °F /  -17.2 °C 1025.3 in /  34716.7 hPa SW 3.2 mph /  5.1 km/h 4.8 mph /  7.7 km/h 98 % 0.0 in /  0 mm
09:28 1.4 °F /  -17 °C 1.1 °F /  -17.2 °C 1024.9 in /  34703.1 hPa Calm   3.2 mph /  5.1 km/h 98 % 0.0 in /  0 mm
09:34 1.6 °F /  -16.9 °C 1.3 °F /  -17.1 °C 1024.9 in /  34703.1 hPa Calm   1.6 mph /  2.6 km/h 98 % 0.0 in /  0 mm
09:42 1.4 °F /  -17 °C 1.0 °F /  -17.2 °C 1024.9 in /  34703.1 hPa Calm   4.8 mph /  7.7 km/h 97 % 0.0 in /  0 mm
09:48 1.4 °F /  -17 °C 1.0 °F /  -17.2 °C 1024.9 in /  34703.1 hPa Calm   3.2 mph /  5.1 km/h 97 % 0.0 in /  0 mm
09:54 1.5 °F /  -16.9 °C 1.1 °F /  -17.2 °C 1024.9 in /  34703.1 hPa SSW 1.4 mph /  2.3 km/h 3.2 mph /  5.1 km/h 97 % 0.0 in /  0 mm
10:00 1.6 °F /  -16.9 °C 1.3 °F /  -17.1 °C 1024.9 in /  34703.1 hPa South 1.4 mph /  2.3 km/h 3.2 mph /  5.1 km/h 98 % 0.0 in /  0 mm
10:06 1.7 °F /  -16.8 °C 1.4 °F /  -17 °C 1024.9 in /  34703.1 hPa SW 1.4 mph /  2.3 km/h 4.8 mph /  7.7 km/h 98 % 0.0 in /  0 mm
10:08 1.7 °F /  -16.8 °C 1.4 °F /  -17 °C 1024.9 in /  34703.1 hPa SE 1.4 mph /  2.3 km/h 3.2 mph /  5.1 km/h 98 % 0.0 in /  0 mm
10:12 1.7 °F /  -16.8 °C 1.4 °F /  -17 °C 1024.9 in /  34703.1 hPa SSW 1.4 mph /  2.3 km/h 1.6 mph /  2.6 km/h 98 % 0.0 in /  0 mm
10:18 1.8 °F /  -16.8 °C 1.5 °F /  -16.9 °C 1024.9 in /  34703.1 hPa SSW 3.2 mph /  5.1 km/h 4.8 mph /  7.7 km/h 98 % 0.0 in /  0 mm
10:24 1.8 °F /  -16.8 °C 1.5 °F /  -16.9 °C 1024.9 in /  34703.1 hPa SE 3.2 mph /  5.1 km/h 4.8 mph /  7.7 km/h 98 % 0.0 in /  0 mm
10:30 1.7 °F /  -16.8 °C 1.3 °F /  -17.1 °C 1024.9 in /  34703.1 hPa SW 4.7 mph /  7.6 km/h 4.8 mph /  7.7 km/h 97 % 0.0 in /  0 mm
10:36 1.6 °F /  -16.9 °C 1.2 °F /  -17.1 °C 1024.9 in /  34703.1 hPa SW 4.7 mph /  7.6 km/h 6.4 mph /  10.3 km/h 97 % 0.0 in /  0 mm
10:42 1.6 °F /  -16.9 °C 1.2 °F /  -17.1 °C 1024.9 in /  34703.1 hPa SSW 1.4 mph /  2.3 km/h 3.2 mph /  5.1 km/h 97 % 0.0 in /  0 mm
10:48 1.7 °F /  -16.8 °C 1.3 °F /  -17.1 °C 1024.9 in /  34703.1 hPa SSE 1.4 mph /  2.3 km/h 3.2 mph /  5.1 km/h 97 % 0.0 in /  0 mm
10:54 1.7 °F /  -16.8 °C 1.3 °F /  -17.1 °C 1024.9 in /  34703.1 hPa Calm   3.2 mph /  5.1 km/h 97 % 0.0 in /  0 mm
11:00 1.7 °F /  -16.8 °C 1.3 °F /  -17.1 °C 1024.9 in /  34703.1 hPa SE 1.4 mph /  2.3 km/h 4.8 mph /  7.7 km/h 97 % 0.0 in /  0 mm
11:06 1.8 °F /  -16.8 °C 1.4 °F /  -17 °C 1024.9 in /  34703.1 hPa Calm   1.6 mph /  2.6 km/h 97 % 0.0 in /  0 mm
11:12 1.9 °F /  -16.7 °C 1.5 °F /  -16.9 °C 1024.9 in /  34703.1 hPa Calm   1.6 mph /  2.6 km/h 97 % 0.0 in /  0 mm
11:18 2.1 °F /  -16.6 °C 1.8 °F /  -16.8 °C 1024.9 in /  34703.1 hPa WSW 1.4 mph /  2.3 km/h 6.4 mph /  10.3 km/h 98 % 0.0 in /  0 mm
11:24 2.2 °F /  -16.6 °C 1.9 °F /  -16.7 °C 1025.3 in /  34716.7 hPa SSW 1.4 mph /  2.3 km/h 1.6 mph /  2.6 km/h 98 % 0.0 in /  0 mm
11:30 2.2 °F /  -16.6 °C 1.9 °F /  -16.7 °C 1024.9 in /  34703.1 hPa Calm   4.8 mph /  7.7 km/h 98 % 0.0 in /  0 mm
11:36 2.3 °F /  -16.5 °C 2.0 °F /  -16.7 °C 1024.9 in /  34703.1 hPa Calm   3.2 mph /  5.1 km/h 98 % 0.0 in /  0 mm
11:42 2.5 °F /  -16.4 °C 2.2 °F /  -16.6 °C 1024.9 in /  34703.1 hPa Calm   3.2 mph /  5.1 km/h 98 % 0.0 in /  0 mm
11:48 2.7 °F /  -16.3 °C 2.4 °F /  -16.4 °C 1024.9 in /  34703.1 hPa SSW 1.4 mph /  2.3 km/h 3.2 mph /  5.1 km/h 98 % 0.0 in /  0 mm
11:54 2.7 °F /  -16.3 °C 2.4 °F /  -16.4 °C 1024.9 in /  34703.1 hPa Calm   1.6 mph /  2.6 km/h 98 % 0.0 in /  0 mm
12:00 2.7 °F /  -16.3 °C 2.4 °F /  -16.4 °C 1024.9 in /  34703.1 hPa Calm   1.6 mph /  2.6 km/h 98 % 0.0 in /  0 mm
12:06 2.9 °F /  -16.2 °C 2.6 °F /  -16.3 °C 1024.9 in /  34703.1 hPa Calm     98 % 0.0 in /  0 mm
12:12 3.0 °F /  -16.1 °C 2.7 °F /  -16.3 °C 1024.9 in /  34703.1 hPa Calm   1.6 mph /  2.6 km/h 98 % 0.0 in /  0 mm
12:18 3.1 °F /  -16.1 °C 2.8 °F /  -16.2 °C 1024.9 in /  34703.1 hPa Calm   1.6 mph /  2.6 km/h 98 % 0.0 in /  0 mm
12:24 3.2 °F /  -16 °C 2.9 °F /  -16.2 °C 1024.9 in /  34703.1 hPa SW 1.4 mph /  2.3 km/h 3.2 mph /  5.1 km/h 98 % 0.0 in /  0 mm
12:30 3.3 °F /  -15.9 °C 3.0 °F /  -16.1 °C 1024.9 in /  34703.1 hPa SSE 1.4 mph /  2.3 km/h 4.8 mph /  7.7 km/h 98 % 0.0 in /  0 mm
12:36 3.4 °F /  -15.9 °C 3.1 °F /  -16.1 °C 1024.9 in /  34703.1 hPa Calm   1.6 mph /  2.6 km/h 98 % 0.0 in /  0 mm
12:42 3.4 °F /  -15.9 °C 3.1 °F /  -16.1 °C 1024.6 in /  34693 hPa ESE 1.4 mph /  2.3 km/h 3.2 mph /  5.1 km/h 98 % 0.0 in /  0 mm
12:48 3.6 °F /  -15.8 °C 3.3 °F /  -15.9 °C 1024.6 in /  34693 hPa SW 1.4 mph /  2.3 km/h 1.6 mph /  2.6 km/h 98 % 0.0 in /  0 mm
12:54 3.6 °F /  -15.8 °C 3.3 °F /  -15.9 °C 1024.6 in /  34693 hPa Calm   1.6 mph /  2.6 km/h 98 % 0.0 in /  0 mm
13:00 3.6 °F /  -15.8 °C 3.3 °F /  -15.9 °C 1024.6 in /  34693 hPa SSE 1.4 mph /  2.3 km/h 3.2 mph /  5.1 km/h 98 % 0.0 in /  0 mm
13:06 3.6 °F /  -15.8 °C 3.3 °F /  -15.9 °C 1024.3 in /  34682.8 hPa Calm   3.2 mph /  5.1 km/h 98 % 0.0 in /  0 mm
13:12 3.7 °F /  -15.7 °C 3.4 °F /  -15.9 °C 1024.3 in /  34682.8 hPa Calm     98 % 0.0 in /  0 mm
13:18 3.8 °F /  -15.7 °C 3.5 °F /  -15.8 °C 1024.3 in /  34682.8 hPa SW 1.4 mph /  2.3 km/h 1.6 mph /  2.6 km/h 98 % 0.0 in /  0 mm
13:24 3.7 °F /  -15.7 °C 3.3 °F /  -15.9 °C 1024.3 in /  34682.8 hPa WSW 1.4 mph /  2.3 km/h 3.2 mph /  5.1 km/h 97 % 0.0 in /  0 mm
13:30 3.7 °F /  -15.7 °C 3.3 °F /  -15.9 °C 1023.9 in /  34669.3 hPa Calm   6.4 mph /  10.3 km/h 97 % 0.0 in /  0 mm
13:36 3.7 °F /  -15.7 °C 3.3 °F /  -15.9 °C 1024.3 in /  34682.8 hPa WSW 1.4 mph /  2.3 km/h 3.2 mph /  5.1 km/h 97 % 0.0 in /  0 mm
13:42 3.7 °F /  -15.7 °C 3.3 °F /  -15.9 °C 1023.9 in /  34669.3 hPa Calm     97 % 0.0 in /  0 mm
13:48 3.8 °F /  -15.7 °C 3.4 °F /  -15.9 °C 1023.9 in /  34669.3 hPa Calm     97 % 0.0 in /  0 mm
13:54 3.9 °F /  -15.6 °C 3.6 °F /  -15.8 °C 1023.9 in /  34669.3 hPa Calm     98 % 0.0 in /  0 mm
14:01 3.9 °F /  -15.6 °C 3.6 °F /  -15.8 °C 1023.9 in /  34669.3 hPa Calm     98 % 0.0 in /  0 mm
14:07 3.9 °F /  -15.6 °C 3.5 °F /  -15.8 °C 1023.9 in /  34669.3 hPa Calm     97 % 0.0 in /  0 mm
14:13 3.9 °F /  -15.6 °C 3.5 °F /  -15.8 °C 1023.9 in /  34669.3 hPa Calm     97 % 0.0 in /  0 mm
14:19 3.9 °F /  -15.6 °C 3.5 °F /  -15.8 °C 1023.9 in /  34669.3 hPa Calm     97 % 0.0 in /  0 mm
14:25 4.1 °F /  -15.5 °C 3.8 °F /  -15.7 °C 1023.9 in /  34669.3 hPa ENE 3.2 mph /  5.1 km/h 6.4 mph /  10.3 km/h 98 % 0.0 in /  0 mm
14:31 4.0 °F /  -15.6 °C 3.7 °F /  -15.7 °C 1023.9 in /  34669.3 hPa Calm   3.2 mph /  5.1 km/h 98 % 0.0 in /  0 mm
14:37 4.0 °F /  -15.6 °C 3.7 °F /  -15.7 °C 1023.6 in /  34659.1 hPa Calm   1.6 mph /  2.6 km/h 98 % 0.0 in /  0 mm
14:43 4.1 °F /  -15.5 °C 3.8 °F /  -15.7 °C 1023.6 in /  34659.1 hPa Calm     98 % 0.0 in /  0 mm
14:49 4.1 °F /  -15.5 °C 3.8 °F /  -15.7 °C 1023.2 in /  34645.6 hPa Calm   1.6 mph /  2.6 km/h 98 % 0.0 in /  0 mm
14:55 4.0 °F /  -15.6 °C 3.6 °F /  -15.8 °C 1023.2 in /  34645.6 hPa Calm   3.2 mph /  5.1 km/h 97 % 0.0 in /  0 mm
15:01 4.2 °F /  -15.4 °C 3.9 °F /  -15.6 °C 1023.2 in /  34645.6 hPa East 3.2 mph /  5.1 km/h 3.2 mph /  5.1 km/h 98 % 0.0 in /  0 mm
15:07 4.2 °F /  -15.4 °C 3.8 °F /  -15.7 °C 1023.2 in /  34645.6 hPa East 4.7 mph /  7.6 km/h 4.8 mph /  7.7 km/h 97 % 0.0 in /  0 mm
15:13 4.2 °F /  -15.4 °C 3.8 °F /  -15.7 °C 1023.2 in /  34645.6 hPa SSE 1.4 mph /  2.3 km/h 4.8 mph /  7.7 km/h 97 % 0.0 in /  0 mm
15:19 4.1 °F /  -15.5 °C 3.7 °F /  -15.7 °C 1023.2 in /  34645.6 hPa SE 1.4 mph /  2.3 km/h 3.2 mph /  5.1 km/h 97 % 0.0 in /  0 mm
15:25 4.1 °F /  -15.5 °C 3.7 °F /  -15.7 °C 1023.2 in /  34645.6 hPa Calm   1.6 mph /  2.6 km/h 97 % 0.0 in /  0 mm
15:31 4.1 °F /  -15.5 °C 3.7 °F /  -15.7 °C 1023.2 in /  34645.6 hPa SSW 1.4 mph /  2.3 km/h 1.6 mph /  2.6 km/h 97 % 0.0 in /  0 mm
15:37 4.0 °F /  -15.6 °C 3.6 °F /  -15.8 °C 1023.2 in /  34645.6 hPa Calm   1.6 mph /  2.6 km/h 97 % 0.0 in /  0 mm
15:43 4.1 °F /  -15.5 °C 3.7 °F /  -15.7 °C 1023.2 in /  34645.6 hPa ENE 1.4 mph /  2.3 km/h 4.8 mph /  7.7 km/h 97 % 0.0 in /  0 mm
15:49 4.1 °F /  -15.5 °C 3.7 °F /  -15.7 °C 1023.2 in /  34645.6 hPa NE 1.4 mph /  2.3 km/h 3.2 mph /  5.1 km/h 97 % 0.0 in /  0 mm
15:55 4.1 °F /  -15.5 °C 3.7 °F /  -15.7 °C 1023.2 in /  34645.6 hPa East 3.2 mph /  5.1 km/h 6.4 mph /  10.3 km/h 97 % 0.0 in /  0 mm
16:01 4.1 °F /  -15.5 °C 3.7 °F /  -15.7 °C 1023.2 in /  34645.6 hPa NE 4.7 mph /  7.6 km/h 6.4 mph /  10.3 km/h 97 % 0.0 in /  0 mm
16:07 3.9 °F /  -15.6 °C 3.5 °F /  -15.8 °C 1023.2 in /  34645.6 hPa Calm   3.2 mph /  5.1 km/h 97 % 0.0 in /  0 mm
16:13 3.9 °F /  -15.6 °C 3.5 °F /  -15.8 °C 1023.2 in /  34645.6 hPa Calm     97 % 0.0 in /  0 mm
16:19 4.0 °F /  -15.6 °C 3.6 °F /  -15.8 °C 1023.2 in /  34645.6 hPa Calm     97 % 0.0 in /  0 mm
16:25 4.1 °F /  -15.5 °C 3.7 °F /  -15.7 °C 1023.2 in /  34645.6 hPa Calm   1.6 mph /  2.6 km/h 97 % 0.0 in /  0 mm
16:31 4.1 °F /  -15.5 °C 3.5 °F /  -15.8 °C 1023.2 in /  34645.6 hPa Calm   4.8 mph /  7.7 km/h 96 % 0.0 in /  0 mm
16:37 4.1 °F /  -15.5 °C 3.5 °F /  -15.8 °C 1023.2 in /  34645.6 hPa NE 4.7 mph /  7.6 km/h 4.8 mph /  7.7 km/h 96 % 0.0 in /  0 mm
16:43 4.0 °F /  -15.6 °C 3.4 °F /  -15.9 °C 1023.2 in /  34645.6 hPa ENE 6.4 mph /  10.3 km/h 6.4 mph /  10.3 km/h 96 % 0.0 in /  0 mm
16:49 3.9 °F /  -15.6 °C 3.3 °F /  -15.9 °C 1023.2 in /  34645.6 hPa Calm     96 % 0.0 in /  0 mm
16:55 3.9 °F /  -15.6 °C 3.3 °F /  -15.9 °C 1023.2 in /  34645.6 hPa Calm   3.2 mph /  5.1 km/h 96 % 0.0 in /  0 mm
17:02 4.0 °F /  -15.6 °C 3.4 °F /  -15.9 °C 1023.2 in /  34645.6 hPa ENE 3.2 mph /  5.1 km/h 3.2 mph /  5.1 km/h 96 % 0.0 in /  0 mm
17:08 3.9 °F /  -15.6 °C 3.2 °F /  -16 °C 1023.2 in /  34645.6 hPa NE 4.7 mph /  7.6 km/h 6.4 mph /  10.3 km/h 95 % 0.0 in /  0 mm
17:14 3.9 °F /  -15.6 °C 3.2 °F /  -16 °C 1023.2 in /  34645.6 hPa North 3.2 mph /  5.1 km/h 4.8 mph /  7.7 km/h 95 % 0.0 in /  0 mm
17:20 3.7 °F /  -15.7 °C 3.0 °F /  -16.1 °C 1023.2 in /  34645.6 hPa Calm   3.2 mph /  5.1 km/h 95 % 0.0 in /  0 mm
17:26 3.6 °F /  -15.8 °C 2.7 °F /  -16.3 °C 1023.2 in /  34645.6 hPa Calm   1.6 mph /  2.6 km/h 94 % 0.0 in /  0 mm
17:32 3.7 °F /  -15.7 °C 3.0 °F /  -16.1 °C 1022.9 in /  34635.4 hPa NNW 1.4 mph /  2.3 km/h 1.6 mph /  2.6 km/h 95 % 0.0 in /  0 mm
17:38 3.8 °F /  -15.7 °C 3.1 °F /  -16.1 °C 1022.9 in /  34635.4 hPa Calm   1.6 mph /  2.6 km/h 95 % 0.0 in /  0 mm
17:44 3.7 °F /  -15.7 °C 2.8 °F /  -16.2 °C 1022.9 in /  34635.4 hPa Calm   1.6 mph /  2.6 km/h 94 % 0.0 in /  0 mm
17:50 3.7 °F /  -15.7 °C 2.8 °F /  -16.2 °C 1022.9 in /  34635.4 hPa North 1.4 mph /  2.3 km/h 1.6 mph /  2.6 km/h 94 % 0.0 in /  0 mm
17:56 3.6 °F /  -15.8 °C 2.7 °F /  -16.3 °C 1022.9 in /  34635.4 hPa North 1.4 mph /  2.3 km/h 3.2 mph /  5.1 km/h 94 % 0.0 in /  0 mm
18:02 3.6 °F /  -15.8 °C 2.7 °F /  -16.3 °C 1022.9 in /  34635.4 hPa North 3.2 mph /  5.1 km/h 3.2 mph /  5.1 km/h 94 % 0.0 in /  0 mm
18:08 3.4 °F /  -15.9 °C 2.5 °F /  -16.4 °C 1022.9 in /  34635.4 hPa North 3.2 mph /  5.1 km/h 3.2 mph /  5.1 km/h 94 % 0.0 in /  0 mm
18:14 3.2 °F /  -16 °C 2.3 °F /  -16.5 °C 1022.9 in /  34635.4 hPa NNW 3.2 mph /  5.1 km/h 3.2 mph /  5.1 km/h 94 % 0.0 in /  0 mm
18:20 3.0 °F /  -16.1 °C 2.1 °F /  -16.6 °C 1022.9 in /  34635.4 hPa NNW 1.4 mph /  2.3 km/h 4.8 mph /  7.7 km/h 94 % 0.0 in /  0 mm
18:26 2.9 °F /  -16.2 °C 2.2 °F /  -16.6 °C 1022.9 in /  34635.4 hPa North 1.4 mph /  2.3 km/h 1.6 mph /  2.6 km/h 95 % 0.0 in /  0 mm
18:32 2.8 °F /  -16.2 °C 2.1 °F /  -16.6 °C 1022.9 in /  34635.4 hPa NNW 3.2 mph /  5.1 km/h 4.8 mph /  7.7 km/h 95 % 0.0 in /  0 mm
18:38 2.7 °F /  -16.3 °C 2.0 °F /  -16.7 °C 1022.9 in /  34635.4 hPa Calm   1.6 mph /  2.6 km/h 95 % 0.0 in /  0 mm
18:44 2.6 °F /  -16.3 °C 1.9 °F /  -16.7 °C 1022.9 in /  34635.4 hPa NNW 1.4 mph /  2.3 km/h 3.2 mph /  5.1 km/h 95 % 0.0 in /  0 mm
18:50 2.5 °F /  -16.4 °C 1.8 °F /  -16.8 °C 1022.9 in /  34635.4 hPa NNW 1.4 mph /  2.3 km/h 3.2 mph /  5.1 km/h 95 % 0.0 in /  0 mm
18:56 2.4 °F /  -16.4 °C 1.7 °F /  -16.8 °C 1022.6 in /  34625.2 hPa Calm   1.6 mph /  2.6 km/h 95 % 0.0 in /  0 mm
19:02 2.3 °F /  -16.5 °C 1.6 °F /  -16.9 °C 1022.6 in /  34625.2 hPa NNW 1.4 mph /  2.3 km/h 1.6 mph /  2.6 km/h 95 % 0.0 in /  0 mm
Meteo18
Compliments of Weather Underground - 4 mb

Script developed by  Jim McMurry - jmcmurry@mwt.net Adapted for the template by  Wim van der Kuil - Leuven-Template.eu

You find our weather info also at:

European Weather Network

Weather Underground

Equipment we use:

Weather-station
Davis Vue

Weather-program
Meteobridge

Weather-server
Raspberry PI 2 B+

Provider
1 and 1

Davis Vue

Meteobridge

Raspberry PI 2 B+

1 and 1